createdAt,value
2022-10-10T00:01:39.512Z,12.41
2022-10-10T00:06:43.432Z,12.41
2022-10-10T00:11:45.960Z,12.41
2022-10-10T00:16:48.476Z,12.38
2022-10-10T00:21:52.360Z,12.40
2022-10-10T00:26:56.588Z,12.36
2022-10-10T00:31:59.164Z,12.37
2022-10-10T00:37:03.472Z,12.39
2022-10-10T00:42:06.400Z,12.26
2022-10-10T00:47:09.552Z,12.29
2022-10-10T00:52:13.484Z,12.30
2022-10-10T00:57:16.262Z,12.31
2022-10-10T01:02:18.791Z,12.35
2022-10-10T01:07:25.361Z,12.33
2022-10-10T01:12:33.921Z,12.33
2022-10-10T01:17:43.997Z,12.24
2022-10-10T01:23:04.809Z,12.27
2022-10-10T01:28:14.252Z,12.34
2022-10-10T01:33:24.935Z,12.29
2022-10-10T01:38:37.121Z,11.96
2022-10-10T01:43:39.674Z,12.18
2022-10-10T01:48:46.859Z,12.23
2022-10-10T01:54:02.872Z,12.21
2022-10-10T01:59:18.179Z,12.23
2022-10-10T02:04:35.296Z,12.21
2022-10-10T02:09:40.687Z,12.17
2022-10-10T02:14:46.915Z,12.14
2022-10-10T02:19:54.128Z,12.17
2022-10-10T02:24:57.169Z,12.15
2022-10-10T02:30:02.365Z,12.10
2022-10-10T02:35:10.020Z,12.06
2022-10-10T02:40:17.787Z,12.02
2022-10-10T02:45:21.806Z,11.95
2022-10-10T02:50:26.434Z,12.06
2022-10-10T02:55:28.993Z,12.09
2022-10-10T03:00:31.512Z,12.02
2022-10-10T03:05:35.450Z,12.01
2022-10-10T03:10:38.449Z,12.01
2022-10-10T03:15:40.961Z,12.01
2022-10-10T03:20:45.651Z,11.97
2022-10-10T03:25:48.692Z,12.01
2022-10-10T03:30:51.219Z,12.01
2022-10-10T03:35:55.091Z,11.96
2022-10-10T03:40:57.605Z,11.93
2022-10-10T03:46:00.146Z,11.94
2022-10-10T03:51:04.356Z,11.81
2022-10-10T03:56:07.626Z,11.87
2022-10-10T04:01:10.175Z,11.85
2022-10-10T04:06:36.008Z,11.88
2022-10-10T04:11:38.823Z,11.87
2022-10-10T04:16:41.348Z,11.82
2022-10-10T04:21:45.486Z,11.61
2022-10-10T04:26:48.016Z,11.79
2022-10-10T04:31:50.598Z,11.81
2022-10-10T04:36:54.464Z,11.82
2022-10-10T04:41:57.090Z,11.83
2022-10-10T04:46:59.717Z,11.82
2022-10-10T04:52:03.601Z,11.72
2022-10-10T04:57:08.244Z,11.63
2022-10-10T05:02:11.331Z,11.66
2022-10-10T05:07:15.241Z,11.66
2022-10-10T05:12:17.838Z,11.61
2022-10-10T05:17:20.688Z,11.65
2022-10-10T05:22:25.089Z,11.60
2022-10-10T05:27:27.863Z,11.62
2022-10-10T05:32:33.839Z,11.59
2022-10-10T05:37:38.547Z,11.63
2022-10-10T05:42:41.084Z,11.55
2022-10-10T05:47:43.711Z,11.50
2022-10-10T05:52:48.089Z,11.53
2022-10-10T05:57:50.946Z,11.52
2022-10-10T06:02:54.012Z,11.54
2022-10-10T06:08:10.752Z,11.52
2022-10-10T06:13:21.631Z,11.58
2022-10-10T06:18:27.008Z,11.58
2022-10-10T06:23:30.977Z,11.57
2022-10-10T06:28:35.211Z,11.64
2022-10-10T06:33:38.068Z,11.75
2022-10-10T06:38:43.987Z,11.74
2022-10-10T06:43:46.500Z,11.81
2022-10-10T06:48:49.300Z,11.88
2022-10-10T06:53:53.191Z,11.97
2022-10-10T06:58:56.340Z,11.97
2022-10-10T07:03:59.279Z,12.02
2022-10-10T07:09:03.322Z,12.15
2022-10-10T07:14:05.940Z,12.15
2022-10-10T07:19:08.629Z,12.20
2022-10-10T07:24:12.704Z,12.27
2022-10-10T07:29:15.555Z,12.29
2022-10-10T07:34:18.134Z,12.35
2022-10-10T07:39:23.266Z,12.37
2022-10-10T07:44:26.079Z,12.40
2022-10-10T07:49:28.837Z,12.41
2022-10-10T07:54:33.827Z,12.23
2022-10-10T07:59:36.544Z,12.59
2022-10-10T08:04:40.287Z,12.69
2022-10-10T08:09:44.151Z,12.84
2022-10-10T08:14:46.771Z,12.90
2022-10-10T08:19:49.308Z,13.02
2022-10-10T08:24:53.615Z,13.17
2022-10-10T08:29:56.179Z,13.30
2022-10-10T08:34:58.734Z,13.36
2022-10-10T08:40:02.887Z,13.59
2022-10-10T08:45:12.150Z,14.06
2022-10-10T08:50:19.433Z,14.30
2022-10-10T08:55:30.777Z,14.63
2022-10-10T09:00:41.097Z,14.85
2022-10-10T09:05:56.848Z,14.99
2022-10-10T09:11:10.995Z,14.85
2022-10-10T09:16:22.246Z,14.97
2022-10-10T09:21:28.993Z,14.90
2022-10-10T09:26:40.664Z,14.83
2022-10-10T09:31:49.337Z,14.92
2022-10-10T09:36:54.221Z,15.05
2022-10-10T09:42:03.660Z,15.24
2022-10-10T09:47:06.242Z,15.37
2022-10-10T09:52:24.725Z,15.52
2022-10-10T09:57:33.637Z,15.77
2022-10-10T10:02:36.177Z,15.67
2022-10-10T10:07:48.793Z,15.80
2022-10-10T10:12:53.232Z,16.10
2022-10-10T10:18:12.399Z,16.21
2022-10-10T10:23:26.540Z,16.18
2022-10-10T10:28:31.215Z,16.14
2022-10-10T10:33:44.936Z,16.03
2022-10-10T10:38:52.981Z,16.38
2022-10-10T10:44:15.737Z,16.42
2022-10-10T10:49:25.631Z,16.43
2022-10-10T10:54:49.200Z,16.46
2022-10-10T11:00:26.472Z,16.52
2022-10-10T11:05:41.305Z,16.72
2022-10-10T11:10:52.587Z,16.84
2022-10-10T11:16:07.510Z,17.14
2022-10-10T11:21:18.211Z,17.21
2022-10-10T11:26:24.903Z,17.26
2022-10-10T11:31:34.800Z,17.22
2022-10-10T11:36:44.059Z,17.28
2022-10-10T11:41:52.045Z,17.42
2022-10-10T11:47:02.921Z,17.39
2022-10-10T11:52:35.421Z,17.52
2022-10-10T11:57:42.519Z,17.55
2022-10-10T12:02:48.357Z,17.63
2022-10-10T12:08:05.797Z,17.55
2022-10-10T12:13:23.430Z,17.59
2022-10-10T12:18:31.962Z,17.55
2022-10-10T12:23:35.023Z,17.42
2022-10-10T12:28:58.569Z,17.29
2022-10-10T12:34:15.564Z,17.67
2022-10-10T12:39:37.816Z,17.84
2022-10-10T12:44:45.510Z,18.02
2022-10-10T12:49:52.244Z,18.44
2022-10-10T12:55:06.550Z,18.65
2022-10-10T13:00:17.919Z,18.53
2022-10-10T13:05:27.292Z,18.54
2022-10-10T13:10:31.302Z,18.96
2022-10-10T13:15:36.483Z,19.14
2022-10-10T13:20:41.660Z,18.96
2022-10-10T13:25:47.235Z,19.13
2022-10-10T13:30:51.324Z,18.80
2022-10-10T13:36:06.328Z,18.56
2022-10-10T13:41:09.325Z,18.54
2022-10-10T13:46:21.611Z,18.44
2022-10-10T13:51:44.882Z,18.44
2022-10-10T13:56:47.500Z,18.55
2022-10-10T14:01:59.263Z,18.66
2022-10-10T14:07:07.068Z,18.67
2022-10-10T14:12:17.997Z,18.66
2022-10-10T14:17:20.743Z,18.76
2022-10-10T14:22:24.934Z,18.70
2022-10-10T14:27:27.912Z,18.47
2022-10-10T14:32:31.072Z,18.51
2022-10-10T14:37:38.460Z,18.41
2022-10-10T14:42:41.429Z,18.21
2022-10-10T14:47:43.977Z,17.96
2022-10-10T14:52:47.854Z,17.80
2022-10-10T14:57:50.444Z,17.59
2022-10-10T15:02:53.113Z,17.61
2022-10-10T15:07:57.037Z,17.60
2022-10-10T15:12:59.559Z,17.54
2022-10-10T15:18:02.218Z,17.55
2022-10-10T15:23:09.075Z,17.51
2022-10-10T15:28:11.704Z,17.44
2022-10-10T15:33:14.264Z,17.39
2022-10-10T15:38:18.259Z,17.36
2022-10-10T15:43:20.781Z,17.32
2022-10-10T15:48:23.624Z,17.19
2022-10-10T15:53:29.176Z,17.08
2022-10-10T15:58:32.065Z,17.04
2022-10-10T16:03:34.726Z,16.95
2022-10-10T16:08:39.740Z,16.83
2022-10-10T16:13:43.369Z,16.53
2022-10-10T16:18:46.052Z,16.46
2022-10-10T16:23:55.629Z,16.38
2022-10-10T16:29:01.848Z,16.13
2022-10-10T16:34:04.483Z,16.24
2022-10-10T16:39:08.427Z,16.23
2022-10-10T16:44:11.346Z,16.08
2022-10-10T16:49:16.736Z,15.81
2022-10-10T16:54:20.830Z,15.50
2022-10-10T16:59:23.446Z,15.30
2022-10-10T17:04:26.007Z,15.20
2022-10-10T17:09:30.752Z,15.30
2022-10-10T17:14:33.476Z,15.31
2022-10-10T17:19:36.584Z,15.29
2022-10-10T17:24:41.164Z,15.09
2022-10-10T17:29:43.738Z,15.00
2022-10-10T17:34:46.409Z,14.92
2022-10-10T17:39:50.361Z,14.83
2022-10-10T17:44:56.698Z,14.83
2022-10-10T17:49:59.366Z,14.79
2022-10-10T17:55:03.266Z,14.73
2022-10-10T18:00:07.055Z,14.67
2022-10-10T18:05:09.874Z,14.65
2022-10-10T18:10:13.824Z,14.66
2022-10-10T18:15:16.615Z,14.36
2022-10-10T18:27:08.021Z,14.47
2022-10-10T18:32:13.803Z,14.41
2022-10-10T18:37:17.404Z,14.37
2022-10-10T18:42:21.455Z,14.21
2022-10-10T18:47:24.165Z,14.11
2022-10-10T18:52:28.714Z,14.03
2022-10-10T18:57:32.785Z,14.04
2022-10-10T19:02:35.355Z,13.99
2022-10-10T19:07:38.305Z,13.92
2022-10-10T19:12:47.194Z,13.88
2022-10-10T19:17:49.993Z,13.76
2022-10-10T19:22:52.610Z,13.75
2022-10-10T19:27:57.393Z,13.66
2022-10-10T19:33:00.279Z,13.64
2022-10-10T19:38:03.026Z,13.50
2022-10-10T19:43:07.003Z,13.47
2022-10-10T19:48:09.740Z,13.45
2022-10-10T19:53:14.544Z,13.00
2022-10-10T19:58:18.687Z,13.24
2022-10-10T20:03:21.275Z,13.19
2022-10-10T20:08:23.813Z,12.99
2022-10-10T20:13:28.898Z,13.03
2022-10-10T20:18:34.166Z,12.93
2022-10-10T20:23:36.761Z,12.12
2022-10-10T20:28:41.085Z,12.91
2022-10-10T20:33:44.405Z,12.80
2022-10-10T20:38:53.396Z,12.67
2022-10-10T20:43:58.934Z,12.70
2022-10-10T20:49:03.355Z,12.60
2022-10-10T20:54:07.126Z,12.57
2022-10-10T20:59:11.614Z,12.54
2022-10-10T21:04:14.893Z,12.43
2022-10-10T21:09:17.472Z,12.34
2022-10-10T21:14:21.741Z,12.24
2022-10-10T21:19:24.276Z,12.25
2022-10-10T21:24:26.824Z,12.18
2022-10-10T21:29:30.818Z,12.18
2022-10-10T21:34:33.627Z,12.02
2022-10-10T21:39:36.553Z,11.97
2022-10-10T21:44:40.635Z,11.95
2022-10-10T21:49:43.466Z,11.88
2022-10-10T21:54:46.040Z,11.78
2022-10-10T21:59:50.178Z,11.79
2022-10-10T22:04:54.872Z,11.66
2022-10-10T22:09:57.786Z,11.61
2022-10-10T22:15:01.711Z,11.38
2022-10-10T22:20:04.615Z,11.53
2022-10-10T22:25:09.549Z,11.46
2022-10-10T22:30:14.908Z,11.39
2022-10-10T22:35:17.463Z,11.36
2022-10-10T22:40:22.096Z,11.22
2022-10-10T22:45:27.366Z,11.24
2022-10-10T22:50:31.094Z,11.20
2022-10-10T22:55:34.952Z,11.11
2022-10-10T23:00:41.229Z,11.08
2022-10-10T23:05:44.329Z,11.09
2022-10-10T23:10:47.946Z,11.02
2022-10-10T23:15:53.351Z,10.96
2022-10-10T23:20:56.173Z,10.94
2022-10-10T23:25:58.738Z,10.98
2022-10-10T23:31:05.260Z,10.95
2022-10-10T23:36:10.628Z,10.89
2022-10-10T23:41:13.751Z,10.83
2022-10-10T23:46:17.632Z,10.77
2022-10-10T23:51:20.350Z,10.65
2022-10-10T23:56:23.045Z,10.62
